createdAt,value
2022-11-05T00:00:39.765Z,63.16
2022-11-05T00:03:29.954Z,63.19
2022-11-05T00:06:17.256Z,63.27
2022-11-05T00:09:04.781Z,63.31
2022-11-05T00:11:52.004Z,63.42
2022-11-05T00:14:39.428Z,63.68
2022-11-05T00:17:07.805Z,63.54
2022-11-05T00:19:36.285Z,63.78
2022-11-05T00:22:23.200Z,63.76
2022-11-05T00:25:10.828Z,63.77
2022-11-05T00:27:39.063Z,64.02
2022-11-05T00:30:09.315Z,64.18
2022-11-05T00:32:38.730Z,64.20
2022-11-05T00:35:08.448Z,64.16
2022-11-05T00:37:36.901Z,64.12
2022-11-05T00:40:06.736Z,64.32
2022-11-05T00:42:53.456Z,64.48
2022-11-05T00:45:22.180Z,64.51
2022-11-05T00:48:09.219Z,64.60
2022-11-05T00:50:37.827Z,64.70
2022-11-05T00:53:07.062Z,64.86
2022-11-05T00:55:46.090Z,64.91
2022-11-05T00:58:20.181Z,65.10
2022-11-05T01:00:56.531Z,65.07
2022-11-05T01:03:47.413Z,65.31
2022-11-05T01:06:18.887Z,65.24
2022-11-05T01:08:47.466Z,65.24
2022-11-05T01:11:33.574Z,65.53
2022-11-05T01:14:05.241Z,65.50
2022-11-05T01:16:34.384Z,65.62
2022-11-05T01:19:04.945Z,65.54
2022-11-05T01:21:33.610Z,65.66
2022-11-05T01:24:02.864Z,65.64
2022-11-05T01:26:31.307Z,65.67
2022-11-05T01:29:02.655Z,65.70
2022-11-05T01:31:31.034Z,65.70
2022-11-05T01:34:00.982Z,65.78
2022-11-05T01:36:29.325Z,65.94
2022-11-05T01:38:57.712Z,65.94
2022-11-05T01:41:26.901Z,66.03
2022-11-05T01:43:59.262Z,66.10
2022-11-05T01:46:42.804Z,66.14
2022-11-05T01:49:31.972Z,66.22
2022-11-05T01:52:04.856Z,66.16
2022-11-05T01:54:35.802Z,66.13
2022-11-05T01:57:09.202Z,66.33
2022-11-05T02:00:04.398Z,66.43
2022-11-05T02:02:41.601Z,66.39
2022-11-05T02:05:14.188Z,66.42
2022-11-05T02:07:46.298Z,66.48
2022-11-05T02:10:17.999Z,66.68
2022-11-05T02:12:51.025Z,66.69
2022-11-05T02:15:38.074Z,66.79
2022-11-05T02:18:27.460Z,66.74
2022-11-05T02:21:38.068Z,66.73
2022-11-05T02:24:25.861Z,66.87
2022-11-05T02:27:02.531Z,66.91
2022-11-05T02:29:52.630Z,66.93
2022-11-05T02:32:51.955Z,66.76
2022-11-05T02:35:40.680Z,66.95
2022-11-05T02:38:11.627Z,67.09
2022-11-05T02:41:01.551Z,67.09
2022-11-05T02:43:52.814Z,67.14
2022-11-05T02:46:41.572Z,67.23
2022-11-05T02:49:26.549Z,67.20
2022-11-05T02:52:03.205Z,67.20
2022-11-05T02:54:50.576Z,67.40
2022-11-05T02:57:22.355Z,67.41
2022-11-05T03:00:21.059Z,67.31
2022-11-05T03:02:49.721Z,67.51
2022-11-05T03:05:23.879Z,67.48
2022-11-05T03:07:59.352Z,67.56
2022-11-05T03:10:43.213Z,67.57
2022-11-05T03:13:16.542Z,67.62
2022-11-05T03:16:04.499Z,67.72
2022-11-05T03:19:10.183Z,67.71
2022-11-05T03:21:53.371Z,67.57
2022-11-05T03:24:26.681Z,67.57
2022-11-05T03:27:11.006Z,67.67
2022-11-05T03:30:05.376Z,67.77
2022-11-05T03:32:38.702Z,67.76
2022-11-05T03:35:18.870Z,67.76
2022-11-05T03:37:50.186Z,67.82
2022-11-05T03:40:20.938Z,67.93
2022-11-05T03:42:54.175Z,67.76
2022-11-05T03:45:28.096Z,67.81
2022-11-05T03:48:00.127Z,67.90
2022-11-05T03:50:41.242Z,68.00
2022-11-05T03:53:16.171Z,68.18
2022-11-05T03:56:05.826Z,68.13
2022-11-05T03:58:36.042Z,68.01
2022-11-05T04:01:04.401Z,68.05
2022-11-05T04:03:36.645Z,68.21
2022-11-05T04:06:26.135Z,68.32
2022-11-05T04:09:13.233Z,68.35
2022-11-05T04:12:08.244Z,68.29
2022-11-05T04:14:36.366Z,68.37
2022-11-05T04:17:09.742Z,68.39
2022-11-05T04:20:01.924Z,68.43
2022-11-05T04:22:51.758Z,68.37
2022-11-05T04:25:21.165Z,68.39
2022-11-05T04:27:50.131Z,68.52
2022-11-05T04:30:19.810Z,68.66
2022-11-05T04:33:04.956Z,68.66
2022-11-05T04:35:39.947Z,68.65
2022-11-05T04:38:11.156Z,68.34
2022-11-05T04:40:43.356Z,68.55
2022-11-05T04:43:17.665Z,68.76
2022-11-05T04:45:46.709Z,68.79
2022-11-05T04:48:14.941Z,68.72
2022-11-05T04:50:43.510Z,68.72
2022-11-05T04:53:12.665Z,68.82
2022-11-05T04:55:41.099Z,68.88
2022-11-05T04:58:09.597Z,68.84
2022-11-05T05:00:38.402Z,68.99
2022-11-05T05:03:06.648Z,68.88
2022-11-05T05:05:35.243Z,68.88
2022-11-05T05:08:06.791Z,68.97
2022-11-05T05:10:35.441Z,68.83
2022-11-05T05:13:03.641Z,68.90
2022-11-05T05:15:32.978Z,68.86
2022-11-05T05:18:01.327Z,68.83
2022-11-05T05:20:48.083Z,69.09
2022-11-05T05:23:16.882Z,69.00
2022-11-05T05:25:45.510Z,69.04
2022-11-05T05:28:13.776Z,69.16
2022-11-05T05:30:42.359Z,69.19
2022-11-05T05:33:10.964Z,69.31
2022-11-05T05:35:39.730Z,69.17
2022-11-05T05:38:08.415Z,69.26
2022-11-05T05:40:36.998Z,69.31
2022-11-05T05:43:05.529Z,69.12
2022-11-05T05:45:35.711Z,69.21
2022-11-05T05:48:04.390Z,69.22
2022-11-05T05:50:33.176Z,69.39
2022-11-05T05:53:09.292Z,69.43
2022-11-05T05:55:38.020Z,69.48
2022-11-05T05:58:06.604Z,69.41
2022-11-05T06:00:36.812Z,69.39
2022-11-05T06:03:06.424Z,69.46
2022-11-05T06:05:35.054Z,69.42
2022-11-05T06:08:03.718Z,69.64
2022-11-05T06:10:32.157Z,69.66
2022-11-05T06:13:01.276Z,69.60
2022-11-05T06:15:34.697Z,69.45
2022-11-05T06:18:05.031Z,69.60
2022-11-05T06:20:33.477Z,69.69
2022-11-05T06:23:02.177Z,69.77
2022-11-05T06:25:30.739Z,69.61
2022-11-05T06:27:59.738Z,69.72
2022-11-05T06:30:27.988Z,69.81
2022-11-05T06:32:56.175Z,69.78
2022-11-05T06:35:24.667Z,69.83
2022-11-05T06:37:53.255Z,69.86
2022-11-05T06:40:21.525Z,70.00
2022-11-05T06:42:52.775Z,69.77
2022-11-05T06:45:22.097Z,69.64
2022-11-05T06:47:56.092Z,69.79
2022-11-05T06:50:26.094Z,69.91
2022-11-05T06:53:02.058Z,69.86
2022-11-05T06:55:31.972Z,69.90
2022-11-05T06:58:00.256Z,69.95
2022-11-05T07:00:28.693Z,69.91
2022-11-05T07:03:04.710Z,69.95
2022-11-05T07:05:35.414Z,70.11
2022-11-05T07:08:04.039Z,70.04
2022-11-05T07:10:32.678Z,69.96
2022-11-05T07:13:05.136Z,69.89
2022-11-05T07:15:37.533Z,69.90
2022-11-05T07:18:07.579Z,69.94
2022-11-05T07:20:36.088Z,69.87
2022-11-05T07:23:07.657Z,70.02
2022-11-05T07:25:35.990Z,69.92
2022-11-05T07:28:05.174Z,69.92
2022-11-05T07:30:34.765Z,69.95
2022-11-05T07:33:03.706Z,70.00
2022-11-05T07:35:32.545Z,70.10
2022-11-05T07:38:01.374Z,70.01
2022-11-05T07:40:30.410Z,70.02
2022-11-05T07:43:00.619Z,70.05
2022-11-05T07:45:30.970Z,70.07
2022-11-05T07:48:01.259Z,70.02
2022-11-05T07:50:32.690Z,70.20
2022-11-05T07:53:10.620Z,70.29
2022-11-05T07:55:41.667Z,70.26
2022-11-05T07:58:11.068Z,70.37
2022-11-05T08:00:39.466Z,70.41
2022-11-05T08:03:13.049Z,70.42
2022-11-05T08:05:44.705Z,70.45
2022-11-05T08:08:15.592Z,70.40
2022-11-05T08:10:44.567Z,70.46
2022-11-05T08:13:14.159Z,70.56
2022-11-05T08:15:43.389Z,70.50
2022-11-05T08:18:17.509Z,70.44
2022-11-05T08:20:46.948Z,70.58
2022-11-05T08:23:15.878Z,70.50
2022-11-05T08:25:44.450Z,70.42
2022-11-05T08:28:13.753Z,70.50
2022-11-05T08:30:42.693Z,70.46
2022-11-05T08:33:13.423Z,70.62
2022-11-05T08:35:42.283Z,70.76
2022-11-05T08:38:16.422Z,70.68
2022-11-05T08:40:46.495Z,70.67
2022-11-05T08:43:15.737Z,70.80
2022-11-05T08:45:44.074Z,70.69
2022-11-05T08:48:15.625Z,70.79
2022-11-05T08:50:46.626Z,70.86
2022-11-05T08:53:16.026Z,70.96
2022-11-05T08:55:46.515Z,70.78
2022-11-05T08:58:17.190Z,70.75
2022-11-05T09:00:48.079Z,70.74
2022-11-05T09:03:17.488Z,70.90
2022-11-05T09:05:46.298Z,70.95
2022-11-05T09:08:17.395Z,70.88
2022-11-05T09:10:47.441Z,70.85
2022-11-05T09:13:19.426Z,70.92
2022-11-05T09:15:50.090Z,70.92
2022-11-05T09:18:19.509Z,70.97
2022-11-05T09:20:48.198Z,71.09
2022-11-05T09:23:17.194Z,70.97
2022-11-05T09:25:45.964Z,71.02
2022-11-05T09:28:20.319Z,70.86
2022-11-05T09:30:51.222Z,70.93
2022-11-05T09:33:23.174Z,70.85
2022-11-05T09:35:52.817Z,70.92
2022-11-05T09:38:21.232Z,70.82
2022-11-05T09:41:07.478Z,70.83
2022-11-05T09:43:40.600Z,70.86
2022-11-05T09:46:25.332Z,70.87
2022-11-05T09:49:02.274Z,70.93
2022-11-05T09:51:31.636Z,70.90
2022-11-05T09:54:01.370Z,70.91
2022-11-05T09:56:34.407Z,70.90
2022-11-05T09:59:07.088Z,70.95
2022-11-05T10:01:37.764Z,70.90
2022-11-05T10:04:13.245Z,70.87
2022-11-05T10:06:56.845Z,70.83
2022-11-05T10:09:28.043Z,70.91
2022-11-05T10:12:45.675Z,70.80
2022-11-05T10:15:24.222Z,70.71
2022-11-05T10:18:11.509Z,70.68
2022-11-05T10:20:42.675Z,70.70
2022-11-05T10:23:17.271Z,70.65
2022-11-05T10:25:51.256Z,70.74
2022-11-05T10:28:22.676Z,70.55
2022-11-05T10:30:57.135Z,70.53
2022-11-05T10:33:34.199Z,70.54
2022-11-05T10:36:07.077Z,70.58
2022-11-05T10:38:35.829Z,70.48
2022-11-05T10:41:31.111Z,70.43
2022-11-05T10:44:07.589Z,70.35
2022-11-05T10:46:46.944Z,70.38
2022-11-05T10:49:26.578Z,70.22
2022-11-05T10:52:03.542Z,70.24
2022-11-05T10:54:35.338Z,70.22
2022-11-05T10:57:28.584Z,70.05
2022-11-05T11:00:15.262Z,70.00
2022-11-05T11:02:46.413Z,70.00
2022-11-05T11:05:39.575Z,69.93
2022-11-05T11:08:11.399Z,69.87
2022-11-05T11:10:50.473Z,69.81
2022-11-05T11:13:45.426Z,69.73
2022-11-05T11:16:21.940Z,69.70
2022-11-05T11:19:00.959Z,69.69
2022-11-05T11:21:31.948Z,69.61
2022-11-05T11:24:03.182Z,69.63
2022-11-05T11:26:35.419Z,69.57
2022-11-05T11:29:28.134Z,69.42
2022-11-05T11:31:58.492Z,69.42
2022-11-05T11:34:31.477Z,69.55
2022-11-05T11:37:12.831Z,69.45
2022-11-05T11:39:48.833Z,69.42
2022-11-05T11:42:26.584Z,69.44
2022-11-05T11:44:59.187Z,69.36
2022-11-05T11:47:29.068Z,69.31
2022-11-05T11:49:59.588Z,69.38
2022-11-05T11:52:32.358Z,69.32
2022-11-05T11:55:22.098Z,69.27
2022-11-05T11:57:53.243Z,69.18
2022-11-05T12:00:25.991Z,69.15
2022-11-05T12:03:04.525Z,69.18
2022-11-05T12:05:34.145Z,69.16
2022-11-05T12:08:35.093Z,69.11
2022-11-05T12:11:04.813Z,69.00
2022-11-05T12:14:04.825Z,68.95
2022-11-05T12:16:46.000Z,69.04
2022-11-05T12:19:34.543Z,68.93
2022-11-05T12:22:15.083Z,68.87
2022-11-05T12:25:16.051Z,68.84
2022-11-05T12:28:08.839Z,68.77
2022-11-05T12:30:45.984Z,68.75
2022-11-05T12:33:53.816Z,68.67
2022-11-05T12:36:36.795Z,68.73
2022-11-05T12:39:23.908Z,68.66
2022-11-05T12:42:06.832Z,68.64
2022-11-05T12:45:05.228Z,68.62
2022-11-05T12:47:59.183Z,68.58
2022-11-05T12:50:51.471Z,68.61
2022-11-05T12:54:10.511Z,68.69
2022-11-05T12:56:41.982Z,68.62
2022-11-05T12:59:43.152Z,68.53
2022-11-05T13:02:22.462Z,68.51
2022-11-05T13:05:20.130Z,68.62
2022-11-05T13:08:07.456Z,68.55
2022-11-05T13:10:43.492Z,68.55
2022-11-05T13:13:39.747Z,68.52
2022-11-05T13:16:30.101Z,68.58
2022-11-05T13:19:13.545Z,68.54
2022-11-05T13:21:52.162Z,68.56
2022-11-05T13:24:25.501Z,68.46
2022-11-05T13:27:04.835Z,68.43
2022-11-05T13:29:43.956Z,68.58
2022-11-05T13:32:31.449Z,68.65
2022-11-05T13:35:03.596Z,68.58
2022-11-05T13:37:56.472Z,68.58
2022-11-05T13:40:46.999Z,68.65
2022-11-05T13:44:00.541Z,68.66
2022-11-05T13:46:45.481Z,68.51
2022-11-05T13:49:29.183Z,68.54
2022-11-05T13:52:04.822Z,68.54
2022-11-05T13:54:51.411Z,68.44
2022-11-05T13:57:35.403Z,68.44
2022-11-05T14:00:17.111Z,68.51
2022-11-05T14:02:57.899Z,68.48
2022-11-05T14:05:34.013Z,68.41
2022-11-05T14:08:18.586Z,68.42
2022-11-05T14:11:01.159Z,68.43
2022-11-05T14:13:34.895Z,68.44
2022-11-05T14:16:09.149Z,68.47
2022-11-05T14:18:52.776Z,68.44
2022-11-05T14:21:27.373Z,68.43
2022-11-05T14:23:57.894Z,68.40
2022-11-05T14:26:32.350Z,68.49
2022-11-05T14:29:04.059Z,68.48
2022-11-05T14:32:07.899Z,68.51
2022-11-05T14:34:54.206Z,68.48
2022-11-05T14:37:37.070Z,68.50
2022-11-05T14:40:27.801Z,68.44
2022-11-05T14:42:59.156Z,68.47
2022-11-05T14:45:38.213Z,68.46
2022-11-05T14:48:27.401Z,68.50
2022-11-05T14:50:58.955Z,68.53
2022-11-05T14:53:39.672Z,68.49
2022-11-05T14:56:12.957Z,68.48
2022-11-05T14:58:42.916Z,68.52
2022-11-05T15:01:14.579Z,68.53
2022-11-05T15:03:46.188Z,68.50
2022-11-05T15:50:19.000Z,67.18
2022-11-05T15:52:53.239Z,67.16
2022-11-05T15:55:24.937Z,67.33
2022-11-05T15:58:02.525Z,67.33
2022-11-05T16:00:32.522Z,67.36
2022-11-05T16:03:21.934Z,67.38
2022-11-05T16:05:49.678Z,67.38
2022-11-05T16:08:22.985Z,67.36
2022-11-05T16:10:53.807Z,67.45
2022-11-05T16:13:34.878Z,67.43
2022-11-05T16:16:05.636Z,67.36
2022-11-05T16:18:35.388Z,67.55
2022-11-05T16:21:09.217Z,67.65
2022-11-05T16:23:59.425Z,67.64
2022-11-05T16:29:36.328Z,67.67
2022-11-05T16:32:13.977Z,67.71
2022-11-05T16:34:46.208Z,67.87
2022-11-05T16:37:15.110Z,68.00
2022-11-05T16:39:42.157Z,68.10
2022-11-05T16:42:35.586Z,68.11
2022-11-05T16:45:03.455Z,68.22
2022-11-05T16:47:30.958Z,68.15
2022-11-05T16:49:58.262Z,68.23
2022-11-05T16:52:25.925Z,68.41
2022-11-05T16:54:53.311Z,68.46
2022-11-05T20:33:37.893Z,67.61
2022-11-05T20:36:07.978Z,67.53
2022-11-05T20:38:34.870Z,67.68
2022-11-05T20:41:07.345Z,67.86
2022-11-05T20:43:35.891Z,68.00
2022-11-05T20:46:03.752Z,68.04
2022-11-05T20:48:32.328Z,68.04
2022-11-05T20:51:03.793Z,68.23
2022-11-05T20:53:30.747Z,68.28
2022-11-05T20:55:57.652Z,68.37
2022-11-05T20:58:24.801Z,68.42
2022-11-05T21:00:54.455Z,68.62
2022-11-05T21:03:22.447Z,68.47
2022-11-05T21:05:53.839Z,68.61
2022-11-05T21:08:21.860Z,68.76
2022-11-05T21:10:51.392Z,68.78
2022-11-05T21:13:19.162Z,68.74
2022-11-05T21:15:51.939Z,68.81
2022-11-05T21:18:20.288Z,68.92
2022-11-05T21:20:48.115Z,68.89
2022-11-05T21:23:15.653Z,69.12
2022-11-05T21:25:43.721Z,68.97
2022-11-05T21:28:12.699Z,68.94
2022-11-05T21:30:44.426Z,69.15
2022-11-05T21:33:13.631Z,69.14
2022-11-05T21:35:47.247Z,69.21
2022-11-05T21:38:16.337Z,69.29
2022-11-05T21:40:44.512Z,69.33
2022-11-05T21:43:12.481Z,69.38
2022-11-05T21:45:41.050Z,69.46
2022-11-05T21:48:08.447Z,69.36
2022-11-05T21:50:56.944Z,69.44
2022-11-05T21:53:42.990Z,69.52
2022-11-05T21:56:43.863Z,69.41
2022-11-05T21:59:32.843Z,69.39
2022-11-05T22:02:03.280Z,69.51
2022-11-05T22:04:35.462Z,69.69
2022-11-05T22:07:03.489Z,69.67
2022-11-05T22:09:31.318Z,69.41
2022-11-05T22:11:59.183Z,69.60
2022-11-05T22:14:27.104Z,69.64
2022-11-05T22:16:54.816Z,69.65
2022-11-05T22:19:22.825Z,69.54
2022-11-05T22:21:49.934Z,69.60
2022-11-05T22:24:18.047Z,69.84
2022-11-05T22:26:46.073Z,69.54
2022-11-05T22:29:13.108Z,69.73
2022-11-05T22:31:40.021Z,69.79
2022-11-05T22:34:07.661Z,69.87
2022-11-05T22:36:34.982Z,69.75
2022-11-05T22:39:02.845Z,69.82
2022-11-05T22:41:30.610Z,69.86
2022-11-05T22:43:58.275Z,69.83
2022-11-05T22:46:26.402Z,69.87
2022-11-05T22:48:55.404Z,69.89
2022-11-05T22:51:25.140Z,69.84
2022-11-05T22:53:54.104Z,69.98
2022-11-05T22:56:23.723Z,69.86
2022-11-05T22:58:50.883Z,69.93
2022-11-05T23:01:19.506Z,69.97
2022-11-05T23:03:48.270Z,69.89
2022-11-05T23:06:36.921Z,70.00
2022-11-05T23:09:30.693Z,70.08
2022-11-05T23:11:58.354Z,70.16
2022-11-05T23:14:26.334Z,70.02
2022-11-05T23:17:12.324Z,70.00
2022-11-05T23:19:58.818Z,70.11
2022-11-05T23:22:46.960Z,70.13
2022-11-05T23:25:17.545Z,70.03
2022-11-05T23:27:47.690Z,69.84
2022-11-05T23:30:20.442Z,69.96
2022-11-05T23:32:47.993Z,70.23
2022-11-05T23:35:15.296Z,70.07
2022-11-05T23:38:00.885Z,70.07
2022-11-05T23:40:51.482Z,70.09
2022-11-05T23:43:37.066Z,70.06
2022-11-05T23:46:22.453Z,70.01
2022-11-05T23:48:50.115Z,70.06
2022-11-05T23:51:17.048Z,70.08
2022-11-05T23:53:43.992Z,70.08
2022-11-05T23:56:13.494Z,70.07
2022-11-05T23:58:41.342Z,70.19
